Flight Track Log - Related Links

Times and Time Zones

All times are in EST time to prevent confusion due to time zone crossing. See the DAL1463 flight status page for this flight to view local times or setup timezone preferences in your user account.

Time Position Orientation Groundspeed Altitude Reporting Facility
EST Latitude Longitude Course Direction KTS MPH feet Rate Location/Type
Wed 10:16:21 AM 42.2039 -83.3697 208° Southwest 173 199 1,400  Level Cleveland Center
Wed 10:17:28 AM 42.1458 -83.4122 208° Southwest 248 285 3,900 2,412 Climbing Cleveland Center
Wed 10:18:03 AM 42.1128 -83.4369 209° Southwest 249 287 5,500 3,582 Climbing Cleveland Center
Wed 10:18:35 AM 42.0642 -83.4400 183° South 283 326 7,900 3,968 Climbing Cleveland Center
Wed 10:19:05 AM 42.0325 -83.4333 171° South 280 322 9,600 2,413 Climbing Cleveland Center
Wed 10:20:07 AM 41.9519 -83.4114 169° South 285 328 11,600 1,984 Climbing Cleveland Center
Wed 10:21:09 AM 41.8497 -83.3864 170° South 347 399 13,700 2,419 Climbing Cleveland Center
Wed 10:22:11 AM 41.7475 -83.3600 169° South 371 427 16,600 2,952 Climbing Cleveland Center
Wed 10:23:13 AM 41.6425 -83.3369 171° South 378 435 19,800 2,855 Climbing Cleveland Center
Wed 10:24:15 AM 41.5161 -83.3406 181° South 377 434 22,500 2,323 Climbing Cleveland Center
Wed 10:25:17 AM 41.4203 -83.3967 204° Southwest 373 429 24,600 1,887 Climbing Cleveland Center
Wed 10:26:19 AM 41.3208 -83.4536 203° Southwest 386 444 26,400 1,548 Climbing Cleveland Center
Wed 10:27:21 AM 41.2186 -83.5133 204° Southwest 399 459 27,800 1,016 Climbing Cleveland Center
Wed 10:28:23 AM 41.1092 -83.5756 203° Southwest 422 486 28,500 1,306 Climbing Cleveland Center
Wed 10:29:25 AM 40.9786 -83.6517 204° Southwest 446 513 30,500 1,887 Climbing Cleveland Center
Wed 10:30:27 AM 40.8664 -83.7153 203° Southwest 445 512 32,400 1,694 Climbing Cleveland Center
Wed 10:31:29 AM 40.7572 -83.7772 203° Southwest 432 497 34,000 774 Climbing Cleveland Center
Wed 10:32:31 AM 40.6508 -83.8383 204° Southwest 419 482 34,000  Level Cleveland Center
Wed 10:33:33 AM 40.5411 -83.9003 203° Southwest 426 490 34,000  Level Cleveland Center
Wed 10:34:35 AM 40.4094 -83.9750 203° Southwest 430 495 34,000 581 Level Cleveland Center
Wed 10:35:37 AM 40.3042 -84.0339 203° Southwest 420 483 35,200 1,258 Climbing Cleveland Center
Wed 10:36:39 AM 40.1886 -84.0603 190° South 425 489 36,600 1,113 Climbing Cleveland Center
Wed 10:37:41 AM 40.0683 -84.0803 187° South 436 502 37,500 774 Climbing Cleveland Center
Wed 10:38:43 AM 39.9467 -84.1006 187° South 441 507 38,200 726 Climbing Cleveland Center
Wed 10:39:45 AM 39.7994 -84.1181 185° South 443 510 39,000 387 Climbing Cleveland Center
Wed 10:40:47 AM 39.6731 -84.1100 177° South 451 519 39,000  Level Cleveland Center
Wed 10:42:12 AM 39.4933 -84.0944 176° South 463 533 39,000  Level Indianapolis Center
Wed 10:43:14 AM 39.3631 -84.0881 178° South 467 537 39,000  Level Indianapolis Center
Wed 10:44:16 AM 39.2333 -84.0803 177° South 467 537 39,000  Level Indianapolis Center
Wed 10:45:18 AM 39.1028 -84.0725 177° South 468 539 39,000  Level Indianapolis Center
Wed 10:46:20 AM 38.9458 -84.0633 177° South 472 543 39,000  Level Indianapolis Center
Wed 10:47:22 AM 38.8161 -84.0553 177° South 471 542 39,000  Level Indianapolis Center
Wed 10:48:24 AM 38.6881 -84.0486 178° South 465 535 39,000  Level Indianapolis Center
Wed 10:49:26 AM 38.5458 -84.0392 177° South 474 545 39,000  Level Indianapolis Center
Wed 10:50:28 AM 38.4164 -84.0319 177° South 473 544 39,000  Level Indianapolis Center
Wed 10:51:30 AM 38.2900 -84.0258 178° South 459 528 39,000  Level Indianapolis Center
Wed 10:52:33 AM 38.1447 -84.0133 176° South 453 521 39,000  Level Indianapolis Center
Wed 10:53:35 AM 38.0156 -84.0086 178° South 457 526 39,000  Level Indianapolis Center
Wed 10:54:37 AM 37.8881 -84.0017 178° South 457 526 39,000  Level Indianapolis Center
Wed 10:55:39 AM 37.7628 -83.9925 177° South 457 526 39,000  Level Indianapolis Center
Wed 10:56:41 AM 37.6350 -83.9842 177° South 457 526 39,000  Level Indianapolis Center
Wed 10:57:43 AM 37.4850 -83.9781 178° South 458 527 39,000  Level Indianapolis Center
Wed 10:58:45 AM 37.3556 -83.9708 177° South 462 532 39,000  Level Indianapolis Center
Wed 10:59:47 AM 37.2258 -83.9633 177° South 465 535 39,000  Level Indianapolis Center
Wed 11:00:49 AM 37.0972 -83.9572 178° South 465 535 39,000  Level Indianapolis Center
Wed 11:01:51 AM 36.9456 -83.9497 178° South 466 536 39,000  Level Indianapolis Center
Wed 11:02:53 AM 36.8144 -83.9419 177° South 466 536 39,000  Level Indianapolis Center
Wed 11:03:55 AM 36.6836 -83.9356 178° South 469 540 39,000  Level Indianapolis Center
Wed 11:04:57 AM 36.5514 -83.9283 177° South 472 543 39,000  Level Indianapolis Center
Wed 11:05:58 AM 36.4175 -83.9206 177° South 472 543 39,000  Level Indianapolis Center
Wed 11:07:00 AM 36.2869 -83.9139 178° South 472 543 39,000  Level Indianapolis Center
Wed 11:08:02 AM 36.1544 -83.9072 178° South 472 543 39,000  Level Indianapolis Center
Wed 11:08:35 AM 36.0750 -83.9053 179° South 477 549 39,000  Level Atlanta Center
Wed 11:09:35 AM 35.9436 -83.8978 177° South 477 549 39,000  Level Atlanta Center
Wed 11:10:35 AM 35.8142 -83.8672 169° South 477 549 39,000  Level Atlanta Center
Wed 11:11:35 AM 35.6847 -83.8239 165° South 482 555 39,000  Level Atlanta Center
Wed 11:12:35 AM 35.5575 -83.7808 165° South 482 555 39,000  Level Atlanta Center
Wed 11:13:35 AM 35.4175 -83.7356 165° South 482 555 39,000  Level Atlanta Center
Wed 11:14:35 AM 35.2881 -83.6903 164° South 482 555 39,000  Level Atlanta Center
Wed 11:15:35 AM 35.1564 -83.6475 165° South 482 555 39,000  Level Atlanta Center
Wed 11:16:35 AM 35.0289 -83.6050 165° South 477 549 39,000  Level Atlanta Center
Wed 11:17:35 AM 34.9014 -83.5575 163° South 477 549 39,000  Level Atlanta Center
Wed 11:18:35 AM 34.7803 -83.5253 168° South 463 533 39,000  Level Atlanta Center
Wed 11:19:35 AM 34.6508 -83.4781 163° South 463 533 39,000  Level Atlanta Center
Wed 11:20:35 AM 34.5233 -83.4386 166° South 476 548 39,000  Level Atlanta Center
Wed 11:21:35 AM 34.3978 -83.3994 166° South 476 548 39,000  Level Atlanta Center
Wed 11:22:35 AM 34.2850 -83.3600 164° South 470 541 39,000  Level Atlanta Center
Wed 11:23:35 AM 34.1533 -83.3208 166° South 475 547 39,000  Level Atlanta Center
Wed 11:24:35 AM 34.0278 -83.2792 165° South 475 547 39,000 -350 Level Atlanta Center
Wed 11:25:35 AM 33.9022 -83.2403 166° South 475 547 38,300 -500 Descending Atlanta Center
Wed 11:26:35 AM 33.7706 -83.1992 165° South 475 547 38,000 -150 Descending Atlanta Center
Wed 11:27:35 AM 33.6261 -83.1556 166° South 486 559 38,000  Level Atlanta Center
Wed 11:28:35 AM 33.4944 -83.1147 165° South 493 567 38,000  Level Atlanta Center
Wed 11:29:35 AM 33.3606 -83.0764 167° South 488 562 38,000  Level Atlanta Center
Wed 11:30:35 AM 33.2308 -83.0331 164° South 482 555 38,000  Level Atlanta Center
Wed 11:31:35 AM 33.0969 -82.9950 167° South 497 572 38,000  Level Atlanta Center
Wed 11:32:35 AM 32.9817 -82.9542 163° South 486 559 38,000  Level Atlanta Center
Wed 11:33:35 AM 32.8497 -82.9114 165° South 486 559 38,000  Level Atlanta Center
Wed 11:34:35 AM 32.7200 -82.8711 165° South 486 559 38,000  Level Atlanta Center
Wed 11:35:35 AM 32.5839 -82.8261 164° South 491 565 38,000  Level Atlanta Center
Wed 11:36:35 AM 32.4414 -82.7836 166° South 491 565 38,000  Level Atlanta Center
Wed 11:38:47 AM 32.1622 -82.6986 166° South 479 551 38,000  Level Jacksonville Center
Wed 11:39:47 AM 32.0369 -82.6572 164° South 474 545 38,000  Level Jacksonville Center
Wed 11:40:47 AM 31.9136 -82.6208 166° South 464 534 38,000  Level Jacksonville Center
Wed 11:41:47 AM 31.7842 -82.5822 166° South 469 540 38,000  Level Jacksonville Center
Wed 11:42:47 AM 31.6586 -82.5436 165° South 474 545 38,000  Level Jacksonville Center
Wed 11:43:47 AM 31.5333 -82.5050 165° South 468 539 38,000  Level Jacksonville Center
Wed 11:44:47 AM 31.4058 -82.4689 166° South 468 539 38,000  Level Jacksonville Center
Wed 11:45:47 AM 31.2783 -82.4381 168° South 468 539 38,000  Level Jacksonville Center
Wed 11:46:47 AM 31.1508 -82.4047 167° South 468 539 38,000  Level Jacksonville Center
Wed 11:47:47 AM 31.0233 -82.3664 166° South 468 539 38,000  Level Jacksonville Center
Wed 11:48:47 AM 30.8958 -82.3308 167° South 468 539 38,000  Level Jacksonville Center
Wed 11:49:47 AM 30.7703 -82.2953 166° South 468 539 38,000  Level Jacksonville Center
Wed 11:50:47 AM 30.6450 -82.2625 167° South 468 539 38,000  Level Jacksonville Center
Wed 11:51:47 AM 30.5278 -82.2244 164° South 474 545 38,000  Level Jacksonville Center
Wed 11:52:47 AM 30.4003 -82.1894 167° South 469 540 38,000 -150 Level Jacksonville Center
Wed 11:53:47 AM 30.2686 -82.1542 167° South 474 545 37,700 -700 Descending Jacksonville Center
Wed 11:54:47 AM 30.1411 -82.1217 168° South 474 545 36,600 -1,250 Descending Jacksonville Center
Wed 11:55:47 AM 29.9989 -82.0986 172° South 469 540 35,200 -800 Descending Jacksonville Center
Wed 11:56:47 AM 29.8756 -82.0708 169° South 469 540 35,000 -100 Descending Jacksonville Center
Wed 11:57:47 AM 29.7481 -82.0458 170° South 469 540 35,000  Level Jacksonville Center
Wed 11:58:47 AM 29.6206 -82.0231 171° South 469 540 35,000  Level Jacksonville Center
Wed 11:59:47 AM 29.4931 -81.9978 170° South 464 534 35,000  Level Jacksonville Center
Wed 12:00:47 PM 29.3675 -81.9703 169° South 464 534 35,000  Level Jacksonville Center
Wed 12:01:47 PM 29.2400 -81.9478 171° South 464 534 35,000  Level Jacksonville Center
Wed 12:02:47 PM 29.1250 -81.9203 168° South 469 540 35,000 -394 Level Jacksonville Center
Wed 12:05:05 PM 28.8225 -81.8667 171° South 472 543 33,700 -727 Descending Miami Center
Wed 12:06:05 PM 28.6961 -81.8397 169° South 461 531 32,600 -2,850 Descending Miami Center
Wed 12:07:05 PM 28.5719 -81.8128 169° South 455 524 28,000 -2,800 Descending Miami Center
Wed 12:08:05 PM 28.4417 -81.7786 167° South 485 558 27,000 -1,150 Descending Miami Center
Wed 12:09:05 PM 28.3261 -81.7453 166° South 485 558 25,700 -1,550 Descending Miami Center
Wed 12:10:05 PM 28.1875 -81.7042 165° South 485 558 23,900 -1,800 Descending Miami Center
Wed 12:11:05 PM 28.0739 -81.6733 167° South 454 522 22,100 -1,450 Descending Miami Center
Wed 12:12:05 PM 27.9689 -81.6900 188° South 400 460 21,000 -1,300 Descending Miami Center
Wed 12:13:05 PM 27.8783 -81.7144 193° South 366 421 19,500 -1,200 Descending Miami Center
Wed 12:14:05 PM 27.7975 -81.7039 173° South 342 394 18,600 -1,450 Descending Miami Center
Wed 12:15:05 PM 27.6900 -81.6736 166° South 348 400 16,600 -1,900 Descending Miami Center
Wed 12:16:05 PM 27.5928 -81.6483 167° South 358 412 14,800 -1,650 Descending Miami Center
Wed 12:17:05 PM 27.4994 -81.6233 167° South 352 405 13,300 -1,350 Descending Miami Center
Wed 12:18:05 PM 27.4044 -81.5961 166° South 352 405 12,100 -1,100 Descending Miami Center
Wed 12:19:05 PM 27.3136 -81.5689 165° South 352 405 11,100 -850 Descending Miami Center
Wed 12:20:05 PM 27.2267 -81.5444 166° South 346 398 10,400 -600 Descending Miami Center
Wed 12:21:05 PM 27.1481 -81.5203 165° South 330 380 9,900 -200 Descending Miami Center
Wed 12:22:05 PM 27.0778 -81.5033 168° South 303 349 10,000 50 Climbing Miami Center
Wed 12:23:05 PM 26.9950 -81.4744 163° South 286 329 10,000 -595 Level Miami Center
Wed 12:24:06 PM 26.9217 -81.4903 191° South 268 308 8,800 -1,500 Descending Miami Center
Wed 12:25:05 PM 26.8553 -81.5342 211° Southwest 268 308 7,000 -1,966 Descending Miami Center
Wed 12:26:05 PM 26.7892 -81.5803 212° Southwest 278 320 4,900 -2,100 Descending Miami Center
Wed 12:27:05 PM 26.7294 -81.6219 212° Southwest 278 320 2,800 -1,500 Descending Miami Center
Wed 12:28:05 PM 26.6781 -81.6594 213° Southwest 272 313 1,900 -450 Descending Miami Center
Wed 12:29:05 PM 26.6275 -81.6736 194° South 242 278 1,900  Level Miami Center
Wed 12:31:00 PM 26.5333 -81.7500 214° Southwest  Level FlightAware Approximate
Wed 12:38:00 PM 26.5362 -81.7552 214° Southwest  Level Estimated
Wed 12:39:00 PM 26.5333 -81.7500 214° Southwest  Level FlightAware Approximate
Wed 12:40:00 PM 26.5362 -81.7552 214° Southwest  Level Estimated

Login

Don't have an account? Register now (free) for customized features, flight alerts, and more!